< < Back
Terminal Aerodrome Forecast


Current Version              Previous Versions:   1  2  3  4  5  6  7  8  9  

Terminal Aerodrome Forecast

807
FTUS42 KTAE 312300
TAFTLH
TAF
KTLH 312324Z 0100/0124 16004KT P6SM SCT050=



Latest METAR

952
SAUS80 KWBC 011400 RRH
MTRTLH
METAR KTLH 011353Z 05003KT 10SM SCT250 30/23 A3013 RMK AO2 SLP202
T03000228 $


USA.gov is the U.S. government's official web portal to all federal, state and local government web resources and services.